This is the latest recevied weather packets stored in our database for station/object TA3HRJ-12. If no packets are shown the sender has not sent any weather packets the latest 10 day(s).
| Time | Temp. | Humidity | Pressure | Rain* | Wind** | Luminosity | Snow |
|---|---|---|---|---|---|---|---|
| 1778163952 | 55.56° C | 1% | 1030.5 hPa | - | - | - | - |
| 1778163052 | 56.11° C | 2% | 1030.6 hPa | - | - | - | - |
| 1778162152 | 50.56° C | 3% | 1030.5 hPa | - | - | - | - |
| 1778161252 | 53.89° C | 2% | 1030.5 hPa | - | - | - | - |
| 1778160352 | 36.67° C | 11% | 1031 hPa | - | - | - | - |
| 1778159452 | 33.33° C | 14% | 1031 hPa | - | - | - | - |
| 1778158552 | 30.56° C | 16% | 1031.1 hPa | - | - | - | - |
| 1778157652 | 28.33° C | 18% | 1031.2 hPa | - | - | - | - |
| 1778156751 | 26.67° C | 20% | 1031.3 hPa | - | - | - | - |
| 1778155851 | 27.22° C | 20% | 1031.4 hPa | - | - | - | - |
| 1778154951 | 26.11° C | 21% | 1031.6 hPa | - | - | - | - |
| 1778154051 | 25.56° C | 20% | 1031.6 hPa | - | - | - | - |
| 1778153151 | 26.67° C | 18% | 1031.5 hPa | - | - | - | - |
| 1778152251 | 27.22° C | 19% | 1031.6 hPa | - | - | - | - |
| 1778151351 | 26.11° C | 19% | 1031.6 hPa | - | - | - | - |
| 1778150451 | 28.33° C | 19% | 1031.6 hPa | - | - | - | - |
| 1778149551 | 26.67° C | 19% | 1031.6 hPa | - | - | - | - |
| 1778148650 | 26.11° C | 21% | 1031.6 hPa | - | - | - | - |
| 1778147750 | 22.78° C | 25% | 1031.7 hPa | - | - | - | - |
| 1778146850 | 24.44° C | 24% | 1031.9 hPa | - | - | - | - |
| 1778145950 | 25° C | 23% | 1031.9 hPa | - | - | - | - |
| 1778145050 | 22.78° C | 25% | 1032.1 hPa | - | - | - | - |
| 1778144150 | 24.44° C | 23% | 1032.1 hPa | - | - | - | - |
| 1778143250 | 22.22° C | 26% | 1032.1 hPa | - | - | - | - |
| 1778142350 | 25° C | 23% | 1032.1 hPa | - | - | - | - |
* Rain since midnight (hover to see other rain measurements)
** Current wind speed in m/s (hover to see current wind gust speed)